Shadwell, Virginia
Current Conditions -  °F | °C
As of 1:53 AM on Friday 31 Oct 2014 (Local Time) from KCHO Reporting Station
Broken Clouds Broken Clouds  
Wind Chill: 40°   Ceiling: 5000
Heat Index: 40°   Visibility: 10mi
Dew Point: 35°   Wind: 3mph
Humidity: 83%   Direction: 260°W
Pressure: 30.04"   Gusts: NA
Location:  38.0053°N, 78.3345°W
Report Text: KCHO 310553Z AUTO 26003KT 10SM BKN050 04/02 A3004 RMK AO2 SLP172 T00440017 10094 20033 55002
Loading
Personal Weather Stations






























Interactive Weather Map
Tropical Storm Tracking
New forecast layout! Learn more

10-Day Weather Forecast

Advertisements
Track Severe Weather on mobile